Time;durP1;ratioP1;P1;durP2;ratioP2;P2;SDS_P1;SDS_P2;PMS_P1;PMS_P2;Temp;Humidity;BMP_temperature;BMP_pressure;BME280_temperature;BME280_humidity;BME280_pressure;Samples;Min_cycle;Max_cycle;Signal;HPM_P1;HPM_P2
2022/09/28 00:01:06;;;;;;;7.25;1.88;;;16.40;96.70;;;;;;5087273;28;20089;-83
2022/09/28 00:03:38;;;;;;;11.57;2.20;;;16.40;96.70;;;;;;5070346;28;20058;-83
2022/09/28 00:06:10;;;;;;;9.15;2.00;;;16.40;96.70;;;;;;5086455;28;20052;-83
2022/09/28 00:08:39;;;;;;;7.70;2.17;;;16.40;96.70;;;;;;5083399;28;20048;-84
2022/09/28 00:11:11;;;;;;;5.32;1.67;;;16.40;96.70;;;;;;5070549;28;20044;-83
2022/09/28 00:13:40;;;;;;;7.07;1.48;;;16.40;96.70;;;;;;5087746;28;20524;-83
2022/09/28 00:16:09;;;;;;;5.93;1.58;;;16.50;96.70;;;;;;5067172;28;20048;-83
2022/09/28 00:18:38;;;;;;;12.40;1.92;;;16.40;96.70;;;;;;5084164;28;20048;-83
2022/09/28 00:21:11;;;;;;;8.30;1.88;;;16.40;96.70;;;;;;5070730;28;20051;-83
2022/09/28 00:26:30;;;;;;;9.20;1.77;;;16.40;96.70;;;;;;5094192;27;20048;-84
2022/09/28 00:29:01;;;;;;;4.95;1.88;;;16.50;96.70;;;;;;5087154;28;20783;-83
2022/09/28 00:31:31;;;;;;;8.77;1.67;;;16.30;96.70;;;;;;5082966;28;20040;-84
2022/09/28 00:34:00;;;;;;;8.15;1.80;;;16.30;96.70;;;;;;5082735;28;20410;-83
2022/09/28 00:36:31;;;;;;;7.72;1.63;;;16.20;96.70;;;;;;5072722;28;20190;-83
2022/09/28 00:39:03;;;;;;;8.15;1.98;;;16.20;96.70;;;;;;5082957;28;20045;-83
2022/09/28 00:41:32;;;;;;;6.70;1.50;;;16.20;96.70;;;;;;5084002;28;20581;-83
2022/09/28 00:44:34;;;;;;;5.85;1.65;;;16.20;96.70;;;;;;5066591;28;20562;-83
2022/09/28 00:47:10;;;;;;;6.80;2.60;;;16.20;96.70;;;;;;5081962;28;20503;-84
2022/09/28 00:49:42;;;;;;;6.82;1.40;;;16.20;96.70;;;;;;5086893;28;20048;-83
2022/09/28 00:52:16;;;;;;;6.70;1.33;;;16.10;96.70;;;;;;5083857;28;20045;-84
2022/09/28 00:54:47;;;;;;;5.63;1.40;;;16.10;96.70;;;;;;5084488;28;20074;-83
2022/09/28 00:57:16;;;;;;;4.32;1.35;;;16.20;96.70;;;;;;5084935;28;20134;-84
2022/09/28 00:59:44;;;;;;;4.82;1.50;;;16.30;96.70;;;;;;5086555;28;20493;-83
2022/09/28 01:02:12;;;;;;;8.10;1.63;;;16.20;96.70;;;;;;5086066;28;20066;-84
2022/09/28 01:04:40;;;;;;;8.50;1.70;;;16.20;96.70;;;;;;5064855;28;20041;-84
2022/09/28 01:07:09;;;;;;;7.57;1.60;;;16.20;96.70;;;;;;5100641;27;20106;-84
2022/09/28 01:09:39;;;;;;;7.78;1.63;;;16.20;96.70;;;;;;5073174;28;20044;-83
2022/09/28 01:12:07;;;;;;;6.88;1.38;;;16.20;96.70;;;;;;5086483;28;20074;-84
2022/09/28 01:14:36;;;;;;;5.95;1.45;;;16.10;96.70;;;;;;5085973;28;20485;-84
2022/09/28 01:17:09;;;;;;;6.13;1.52;;;16.10;96.70;;;;;;5092705;28;20142;-84
2022/09/28 01:20:30;;;;;;;7.32;1.52;;;16.10;96.70;;;;;;5065639;28;20044;-84
2022/09/28 01:23:38;;;;;;;9.20;1.75;;;16.20;96.70;;;;;;5064931;28;20171;-84
2022/09/28 01:26:42;;;;;;;5.35;1.50;;;16.10;96.70;;;;;;5058401;28;20052;-83
2022/09/28 01:29:17;;;;;;;7.68;1.88;;;16.10;96.70;;;;;;5083561;28;20074;-84
2022/09/28 01:31:49;;;;;;;5.10;1.58;;;16.10;96.70;;;;;;5086627;28;20063;-84
2022/09/28 01:34:22;;;;;;;7.07;1.50;;;16.10;96.70;;;;;;5086515;28;20040;-83
2022/09/28 01:36:55;;;;;;;4.53;1.45;;;16.00;96.70;;;;;;5087484;28;20111;-83
2022/09/28 01:39:30;;;;;;;5.97;1.60;;;15.90;96.70;;;;;;5083377;28;20109;-83
2022/09/28 01:42:03;;;;;;;10.25;1.48;;;16.00;96.70;;;;;;5086067;28;20066;-83
2022/09/28 01:44:38;;;;;;;4.55;1.00;;;16.10;96.70;;;;;;5086146;28;20116;-84
2022/09/28 01:47:11;;;;;;;6.07;1.25;;;16.00;96.70;;;;;;5082587;28;20466;-83
2022/09/28 01:49:44;;;;;;;8.02;1.50;;;16.00;96.70;;;;;;5065326;28;20053;-83
2022/09/28 01:52:17;;;;;;;8.10;1.25;;;16.00;96.70;;;;;;5068478;28;20052;-83
2022/09/28 01:54:51;;;;;;;6.82;1.27;;;16.00;96.70;;;;;;5085926;28;20044;-83
2022/09/28 01:57:25;;;;;;;10.82;1.75;;;16.10;96.70;;;;;;5061710;28;20067;-83
2022/09/28 02:00:09;;;;;;;9.52;1.45;;;16.10;96.70;;;;;;5075009;28;20036;-84
2022/09/28 02:02:52;;;;;;;8.27;1.67;;;16.10;96.70;;;;;;5085639;28;20146;-84
2022/09/28 02:05:30;;;;;;;9.38;2.15;;;16.00;96.70;;;;;;5086131;28;20607;-83
2022/09/28 02:08:03;;;;;;;7.18;1.63;;;16.00;96.70;;;;;;5084464;28;20139;-84
2022/09/28 02:10:37;;;;;;;6.22;1.70;;;16.00;96.70;;;;;;5083899;28;20069;-84
2022/09/28 02:13:11;;;;;;;9.65;2.72;;;16.10;96.70;;;;;;5085599;28;20040;-83
2022/09/28 02:15:45;;;;;;;7.88;1.20;;;16.10;96.70;;;;;;5086105;28;20052;-83
2022/09/28 02:18:13;;;;;;;5.63;1.20;;;16.00;96.70;;;;;;5082633;28;20049;-84
2022/09/28 02:20:46;;;;;;;5.95;1.33;;;16.10;96.70;;;;;;5069399;28;20083;-84
2022/09/28 02:23:15;;;;;;;5.82;1.27;;;16.10;96.70;;;;;;5080212;28;20101;-84
2022/09/28 02:25:49;;;;;;;9.00;1.63;;;16.00;96.70;;;;;;5065937;28;20471;-84
2022/09/28 02:28:20;;;;;;;5.47;1.40;;;15.90;96.70;;;;;;5086051;28;20048;-83
2022/09/28 02:30:50;;;;;;;5.40;1.45;;;15.80;96.70;;;;;;5065196;28;20044;-84
2022/09/28 02:33:25;;;;;;;6.15;1.30;;;15.80;96.70;;;;;;5068918;28;20319;-83
2022/09/28 02:35:55;;;;;;;5.73;1.10;;;15.80;96.70;;;;;;5068832;28;20098;-83
2022/09/28 02:38:33;;;;;;;6.40;1.45;;;15.90;96.70;;;;;;5066886;28;20045;-83
2022/09/28 02:41:18;;;;;;;6.88;1.80;;;15.90;96.70;;;;;;5081160;28;20600;-83
2022/09/28 02:44:00;;;;;;;8.07;1.10;;;15.80;96.70;;;;;;5088724;28;20044;-83
2022/09/28 02:46:34;;;;;;;4.47;1.20;;;15.80;96.70;;;;;;5088323;28;20079;-83
2022/09/28 02:49:22;;;;;;;5.97;1.10;;;15.80;96.70;;;;;;5081963;28;20048;-83
2022/09/28 02:52:07;;;;;;;3.88;1.30;;;15.90;96.70;;;;;;5088286;28;20048;-83
2022/09/28 02:55:04;;;;;;;8.77;2.03;;;15.80;96.70;;;;;;5083721;28;20048;-83
2022/09/28 02:57:43;;;;;;;7.57;1.60;;;15.80;96.70;;;;;;5088752;28;20159;-83
2022/09/28 03:00:17;;;;;;;8.68;1.98;;;15.60;96.70;;;;;;5088712;28;20052;-83
2022/09/28 03:02:54;;;;;;;8.65;1.65;;;15.70;96.70;;;;;;5088326;28;20071;-83
2022/09/28 03:05:30;;;;;;;7.07;1.70;;;15.80;96.70;;;;;;5083704;28;20040;-83
2022/09/28 03:08:01;;;;;;;3.35;1.17;;;15.90;96.70;;;;;;5067693;28;20049;-83
2022/09/28 03:10:37;;;;;;;6.93;1.73;;;15.70;96.70;;;;;;5116733;27;20078;-83
2022/09/28 03:13:06;;;;;;;5.55;1.10;;;15.80;96.70;;;;;;5082521;28;20054;-83
2022/09/28 03:15:37;;;;;;;5.93;1.20;;;15.90;96.70;;;;;;5099349;28;20566;-82
2022/09/28 03:18:05;;;;;;;10.15;1.23;;;15.80;96.70;;;;;;5087762;28;20490;-83
2022/09/28 03:20:34;;;;;;;6.60;1.48;;;15.90;96.70;;;;;;5088804;28;20119;-83
2022/09/28 03:23:02;;;;;;;7.65;1.50;;;16.00;96.70;;;;;;5063882;28;20077;-83
2022/09/28 03:25:51;;;;;;;5.95;1.40;;;15.90;96.70;;;;;;5083493;28;20063;-83
2022/09/28 03:28:20;;;;;;;8.43;1.40;;;16.00;96.70;;;;;;5087561;28;20074;-83
2022/09/28 03:30:50;;;;;;;5.53;1.33;;;16.00;96.70;;;;;;5078167;28;20488;-82
2022/09/28 03:33:19;;;;;;;6.65;1.35;;;16.00;96.70;;;;;;5087523;28;20040;-82
2022/09/28 03:35:49;;;;;;;4.85;1.10;;;15.90;96.70;;;;;;5087091;28;20470;-82
2022/09/28 03:38:18;;;;;;;5.80;1.73;;;16.00;96.70;;;;;;5087272;28;20052;-82
2022/09/28 03:40:52;;;;;;;4.53;1.38;;;16.00;96.70;;;;;;5072750;28;20543;-82
2022/09/28 03:43:21;;;;;;;7.22;1.38;;;16.00;96.70;;;;;;5078086;28;20052;-82
2022/09/28 03:45:55;;;;;;;6.88;1.40;;;16.00;96.70;;;;;;5084116;28;20165;-82
2022/09/28 03:48:25;;;;;;;7.90;1.55;;;16.00;96.70;;;;;;5086647;28;20044;-82
2022/09/28 03:51:00;;;;;;;13.18;1.73;;;16.00;96.70;;;;;;5089165;28;20050;-82
2022/09/28 03:53:29;;;;;;;8.82;1.70;;;16.00;96.70;;;;;;5086160;28;20044;-82
2022/09/28 03:56:03;;;;;;;8.05;1.65;;;16.00;96.70;;;;;;5071218;28;20075;-82
2022/09/28 03:58:32;;;;;;;5.97;1.35;;;16.00;96.70;;;;;;5062663;28;20048;-81
2022/09/28 04:01:03;;;;;;;6.18;1.30;;;16.00;96.70;;;;;;5085508;28;20094;-82
2022/09/28 04:03:33;;;;;;;5.93;1.42;;;16.00;96.70;;;;;;5083550;28;20493;-82
2022/09/28 04:06:01;;;;;;;6.82;1.35;;;15.90;96.70;;;;;;5085903;28;20040;-81
2022/09/28 04:08:29;;;;;;;8.48;1.73;;;15.90;96.70;;;;;;5086237;28;20421;-82
2022/09/28 04:10:59;;;;;;;7.25;1.90;;;15.90;96.70;;;;;;5066432;28;20040;-83
2022/09/28 04:13:28;;;;;;;5.50;1.45;;;15.90;96.70;;;;;;5076718;28;20041;-82
2022/09/28 04:15:59;;;;;;;7.53;1.40;;;15.90;96.70;;;;;;5086358;28;20044;-82
2022/09/28 04:18:33;;;;;;;6.70;1.90;;;15.90;96.70;;;;;;5086410;28;20587;-82
2022/09/28 04:21:20;;;;;;;8.70;1.63;;;15.90;96.70;;;;;;5086235;28;20166;-84
2022/09/28 04:23:54;;;;;;;7.38;1.73;;;16.00;96.70;;;;;;5081325;28;20143;-83
2022/09/28 04:29:14;;;;;;;6.03;1.45;;;16.00;96.70;;;;;;5083021;28;20094;-79
2022/09/28 04:29:42;;;;;;;6.00;1.55;;;15.90;96.70;;;;;;5079699;28;20052;-80
2022/09/28 04:32:12;;;;;;;6.97;1.42;;;15.80;96.70;;;;;;5069461;28;20044;-79
2022/09/28 04:34:42;;;;;;;9.88;2.40;;;15.90;96.70;;;;;;5078580;28;20070;-79
2022/09/28 04:37:11;;;;;;;9.75;1.90;;;15.90;96.70;;;;;;5066554;28;20490;-78
2022/09/28 04:39:40;;;;;;;5.32;1.60;;;15.90;96.70;;;;;;5080657;28;20139;-79
2022/09/28 04:42:17;;;;;;;7.15;1.92;;;16.00;96.70;;;;;;5067345;28;20051;-79
2022/09/28 04:44:46;;;;;;;7.38;1.20;;;16.00;96.70;;;;;;5083621;28;20089;-79
2022/09/28 04:47:14;;;;;;;3.60;0.93;;;16.00;96.70;;;;;;5082517;28;20063;-81
2022/09/28 04:50:09;;;;;;;5.70;1.77;;;16.00;96.70;;;;;;5082645;28;20059;-79
2022/09/28 04:52:59;;;;;;;6.47;1.30;;;16.10;96.70;;;;;;5081438;28;20405;-80
2022/09/28 04:55:31;;;;;;;6.72;1.40;;;16.10;96.70;;;;;;5082994;28;20044;-79
2022/09/28 04:58:01;;;;;;;7.22;1.50;;;16.10;96.70;;;;;;5064349;28;20051;-79
2022/09/28 05:00:34;;;;;;;7.35;1.40;;;16.00;96.70;;;;;;5074646;28;20170;-80
2022/09/28 05:03:28;;;;;;;3.75;1.17;;;16.10;96.70;;;;;;5083296;28;20044;-79
2022/09/28 05:06:33;;;;;;;7.43;1.60;;;16.10;96.70;;;;;;5049463;28;20048;-78
2022/09/28 05:09:06;;;;;;;5.00;1.25;;;16.10;96.70;;;;;;5063815;28;20522;-79
2022/09/28 05:11:35;;;;;;;4.90;1.60;;;16.00;96.70;;;;;;5078635;28;20064;-79
2022/09/28 05:14:07;;;;;;;7.40;1.58;;;16.10;96.70;;;;;;5082182;28;20056;-79
2022/09/28 05:16:36;;;;;;;8.77;1.50;;;16.10;96.70;;;;;;5083975;28;20044;-80
2022/09/28 05:19:30;;;;;;;6.80;1.27;;;16.10;96.70;;;;;;5066771;28;20125;-79
2022/09/28 05:22:06;;;;;;;7.97;1.42;;;16.10;96.70;;;;;;5078843;28;20155;-79
2022/09/28 05:24:41;;;;;;;10.20;2.20;;;16.10;96.70;;;;;;5081485;28;20073;-80
2022/09/28 05:27:09;;;;;;;7.78;1.58;;;16.10;96.70;;;;;;5081323;28;20076;-79
2022/09/28 05:29:38;;;;;;;7.88;1.42;;;16.10;96.70;;;;;;5081507;28;20036;-79
2022/09/28 05:32:25;;;;;;;4.63;1.35;;;16.10;96.70;;;;;;5083782;28;20253;-80
2022/09/28 05:35:00;;;;;;;7.55;1.33;;;16.10;96.70;;;;;;5062030;28;20347;-80
2022/09/28 05:37:40;;;;;;;14.43;2.30;;;16.10;96.70;;;;;;5082045;28;20044;-78
2022/09/28 05:40:09;;;;;;;9.32;1.60;;;16.10;96.70;;;;;;5064740;28;20048;-79
2022/09/28 05:42:39;;;;;;;6.60;1.35;;;16.10;96.70;;;;;;5067100;28;20504;-79
2022/09/28 05:45:09;;;;;;;7.82;1.90;;;16.10;96.70;;;;;;5081982;28;20159;-78
2022/09/28 05:47:41;;;;;;;4.25;1.70;;;16.10;96.70;;;;;;5082504;28;20101;-82
2022/09/28 05:50:10;;;;;;;8.40;2.15;;;16.20;96.70;;;;;;5064394;28;20048;-81
2022/09/28 05:52:42;;;;;;;7.78;2.25;;;16.20;96.70;;;;;;5066264;28;20397;-81
2022/09/28 05:55:11;;;;;;;9.13;3.05;;;16.20;96.70;;;;;;5084396;28;20520;-81
2022/09/28 05:57:41;;;;;;;8.32;2.65;;;16.30;96.70;;;;;;5085476;28;20082;-84
2022/09/28 06:00:11;;;;;;;14.80;3.80;;;16.30;96.70;;;;;;5083110;28;20048;-79
2022/09/28 06:02:39;;;;;;;12.80;3.90;;;16.30;96.70;;;;;;5080505;28;20048;-78
2022/09/28 06:05:10;;;;;;;12.85;4.40;;;16.30;96.70;;;;;;5064641;28;20063;-82
2022/09/28 06:07:41;;;;;;;16.17;4.65;;;16.30;96.70;;;;;;5089711;28;20044;-82
2022/09/28 06:10:09;;;;;;;12.55;3.20;;;16.40;96.70;;;;;;5084552;28;20079;-80
2022/09/28 06:12:42;;;;;;;14.23;3.80;;;16.40;96.70;;;;;;5097739;28;20047;-81
2022/09/28 06:15:16;;;;;;;17.25;3.55;;;16.50;96.70;;;;;;5086967;28;20501;-81
2022/09/28 06:17:46;;;;;;;14.20;3.00;;;16.50;96.70;;;;;;5070748;28;20044;-82
2022/09/28 06:20:49;;;;;;;7.43;2.78;;;16.50;96.70;;;;;;5038807;28;20116;-82
2022/09/28 06:23:27;;;;;;;9.77;2.20;;;16.50;96.70;;;;;;5089773;28;20044;-80
2022/09/28 06:25:58;;;;;;;5.78;1.98;;;16.50;96.70;;;;;;5070935;28;20047;-84
2022/09/28 06:28:27;;;;;;;10.93;2.85;;;16.50;96.70;;;;;;5087225;28;20050;-86
2022/09/28 06:30:58;;;;;;;9.57;2.25;;;16.50;96.70;;;;;;5089880;28;20048;-87
2022/09/28 06:33:27;;;;;;;8.38;2.50;;;16.60;96.70;;;;;;5076726;28;20418;-85
2022/09/28 06:35:57;;;;;;;11.23;2.95;;;16.70;96.70;;;;;;5089993;28;20040;-84
2022/09/28 06:38:27;;;;;;;7.35;2.13;;;16.70;96.70;;;;;;5089122;28;20544;-84
2022/09/28 06:40:56;;;;;;;8.93;2.55;;;16.90;96.70;;;;;;5069780;28;20040;-86
2022/09/28 06:43:26;;;;;;;6.13;2.08;;;16.90;96.70;;;;;;5105581;28;20050;-86
2022/09/28 06:46:27;;;;;;;8.88;2.97;;;16.90;96.70;;;;;;5077064;28;20041;-85
2022/09/28 06:49:18;;;;;;;19.08;2.78;;;17.00;96.70;;;;;;5080247;28;20084;-85
2022/09/28 06:52:18;;;;;;;12.40;3.20;;;17.00;96.70;;;;;;5080352;28;20063;-84
2022/09/28 06:55:13;;;;;;;12.30;3.58;;;17.00;96.70;;;;;;5076421;28;20056;-85
2022/09/28 06:57:43;;;;;;;10.07;4.00;;;17.00;96.70;;;;;;5089200;28;20557;-86
2022/09/28 07:00:12;;;;;;;10.85;4.50;;;17.00;96.70;;;;;;5082502;28;20102;-86
2022/09/28 07:02:43;;;;;;;14.80;4.55;;;17.00;96.70;;;;;;5088677;28;20040;-86
2022/09/28 07:05:36;;;;;;;15.60;4.30;;;17.10;96.70;;;;;;5084515;28;20051;-85
2022/09/28 07:08:27;;;;;;;13.48;3.90;;;17.00;96.70;;;;;;5070016;28;20140;-85
2022/09/28 07:11:19;;;;;;;11.68;4.57;;;17.00;96.70;;;;;;5089630;28;20052;-86
2022/09/28 07:14:07;;;;;;;11.32;4.38;;;17.10;96.70;;;;;;5083351;28;20058;-83
2022/09/28 07:16:37;;;;;;;11.45;3.33;;;17.20;96.70;;;;;;5087113;28;20527;-85
2022/09/28 07:19:27;;;;;;;10.82;3.80;;;17.10;96.70;;;;;;5082182;28;20504;-81
2022/09/28 07:21:55;;;;;;;12.85;4.28;;;17.10;96.70;;;;;;5103305;28;20048;-82
2022/09/28 07:24:32;;;;;;;15.65;6.78;;;17.10;96.70;;;;;;5079843;28;20066;-82
2022/09/28 07:27:21;;;;;;;22.52;10.55;;;17.20;96.70;;;;;;5084354;28;20056;-81
2022/09/28 07:30:12;;;;;;;25.23;10.32;;;17.20;96.70;;;;;;5082100;28;20064;-86
2022/09/28 07:32:59;;;;;;;33.15;13.35;;;17.30;96.70;;;;;;5089129;28;20032;-86
2022/09/28 07:35:56;;;;;;;29.42;13.02;;;17.30;96.70;;;;;;5069341;28;20056;-86
2022/09/28 07:38:27;;;;;;;25.60;12.35;;;17.30;96.70;;;;;;5075609;28;20052;-85
2022/09/28 07:41:12;;;;;;;21.17;9.50;;;17.40;96.70;;;;;;5086443;28;20062;-86
2022/09/28 07:43:48;;;;;;;25.88;12.98;;;17.40;96.70;;;;;;5113761;27;20043;-86
2022/09/28 07:46:16;;;;;;;27.17;12.93;;;17.40;96.70;;;;;;5084624;28;20426;-86
2022/09/28 07:48:54;;;;;;;18.20;8.15;;;17.50;96.70;;;;;;5085237;28;20074;-85
2022/09/28 07:51:52;;;;;;;18.65;6.88;;;17.60;96.70;;;;;;5052268;28;20521;-86
2022/09/28 07:54:38;;;;;;;17.30;7.50;;;17.50;96.70;;;;;;5090256;28;20437;-86
2022/09/28 07:57:18;;;;;;;18.90;7.25;;;17.60;96.70;;;;;;5088672;28;20087;-85
2022/09/28 07:59:55;;;;;;;23.45;7.72;;;17.60;96.70;;;;;;5071767;28;20386;-85
2022/09/28 08:02:42;;;;;;;18.02;6.75;;;17.70;96.70;;;;;;5087842;28;20051;-89
2022/09/28 08:05:15;;;;;;;19.70;7.38;;;17.70;96.70;;;;;;5086737;28;20051;-83
2022/09/28 08:07:43;;;;;;;21.65;7.30;;;17.60;96.70;;;;;;5071060;28;20125;-83
2022/09/28 08:10:12;;;;;;;20.52;6.68;;;17.60;96.70;;;;;;5087599;28;20386;-85
2022/09/28 08:13:02;;;;;;;14.77;5.53;;;17.60;96.70;;;;;;5089231;28;20066;-86
2022/09/28 08:15:59;;;;;;;10.38;4.30;;;17.70;96.70;;;;;;5083827;28;20055;-85
2022/09/28 08:18:48;;;;;;;14.30;4.05;;;17.80;96.70;;;;;;5087741;28;20647;-86
2022/09/28 08:24:04;;;;;;;9.48;3.60;;;18.00;96.70;;;;;;5088718;28;20494;-86
2022/09/28 08:26:33;;;;;;;15.63;4.40;;;18.20;96.70;;;;;;5086923;28;20680;-85
2022/09/28 08:29:07;;;;;;;12.38;3.88;;;18.20;96.70;;;;;;5085129;28;20052;-85
2022/09/28 08:31:58;;;;;;;8.13;2.97;;;18.20;96.70;;;;;;5087322;28;20687;-86
2022/09/28 08:34:34;;;;;;;8.32;3.50;;;18.30;96.70;;;;;;5087048;28;20036;-89
2022/09/28 08:37:29;;;;;;;12.30;4.07;;;18.30;96.70;;;;;;5085631;28;20048;-87
2022/09/28 08:40:19;;;;;;;10.25;4.05;;;18.40;96.70;;;;;;5087788;28;20063;-89
2022/09/28 08:43:10;;;;;;;10.50;4.47;;;18.50;96.70;;;;;;5087284;28;20196;-88
2022/09/28 08:46:14;;;;;;;12.63;4.35;;;18.60;96.70;;;;;;5065250;28;20617;-89
2022/09/28 08:49:15;;;;;;;13.55;4.65;;;18.60;96.70;;;;;;5078368;28;20041;-87
2022/09/28 08:52:10;;;;;;;11.25;4.78;;;18.60;96.70;;;;;;5082976;28;20119;-86
2022/09/28 08:55:01;;;;;;;15.60;5.90;;;18.60;96.70;;;;;;5076853;28;20090;-86
2022/09/28 08:57:43;;;;;;;13.13;5.97;;;18.60;96.70;;;;;;5081983;28;20056;-86
2022/09/28 09:00:18;;;;;;;19.10;5.40;;;18.60;96.70;;;;;;5067177;28;20071;-86
2022/09/28 09:02:47;;;;;;;10.57;4.30;;;18.60;96.70;;;;;;5071224;28;20041;-85
2022/09/28 09:05:23;;;;;;;12.52;4.85;;;18.50;96.70;;;;;;5062916;28;20082;-86
2022/09/28 09:08:29;;;;;;;8.68;4.05;;;18.50;96.70;;;;;;5072041;28;20040;-85
2022/09/28 09:11:08;;;;;;;10.88;3.72;;;18.60;96.70;;;;;;5087012;28;20074;-85
2022/09/28 09:14:10;;;;;;;12.50;3.45;;;18.60;96.70;;;;;;5070695;28;20066;-87
2022/09/28 09:16:54;;;;;;;9.02;2.55;;;18.60;96.70;;;;;;5073164;28;20060;-86
2022/09/28 09:20:13;;;;;;;9.52;2.88;;;18.60;96.70;;;;;;5066530;28;20053;-86
2022/09/28 09:22:57;;;;;;;14.45;3.22;;;18.60;96.70;;;;;;5048537;28;20146;-86
2022/09/28 09:25:28;;;;;;;14.88;3.10;;;18.60;96.70;;;;;;5051748;28;20056;-86
2022/09/28 09:28:35;;;;;;;14.27;3.40;;;18.60;96.70;;;;;;5068567;28;20055;-85
2022/09/28 09:31:11;;;;;;;9.30;2.53;;;18.50;96.70;;;;;;5086708;28;20052;-85
2022/09/28 09:34:12;;;;;;;10.15;3.53;;;18.50;96.70;;;;;;5074985;28;20103;-85
2022/09/28 09:37:06;;;;;;;11.07;3.28;;;18.50;96.70;;;;;;5070774;28;20097;-87
2022/09/28 09:40:19;;;;;;;;;;;18.40;96.70;;;;;;5029254;28;20591;-86
2022/09/28 09:43:34;;;;;;;11.82;3.03;;;18.20;96.70;;;;;;5083863;28;19930;-86
2022/09/28 09:46:30;;;;;;;9.77;2.58;;;18.20;96.70;;;;;;5089171;28;20052;-87
2022/09/28 09:49:19;;;;;;;11.15;3.58;;;18.10;96.70;;;;;;5071223;28;20067;-87
2022/09/28 09:51:53;;;;;;;10.13;3.00;;;18.10;96.70;;;;;;5070953;28;20049;-87
2022/09/28 09:54:27;;;;;;;8.57;2.58;;;18.10;96.70;;;;;;5081350;28;20078;-87
2022/09/28 09:57:02;;;;;;;12.00;2.85;;;18.00;96.70;;;;;;5090665;28;20097;-87
2022/09/28 10:00:03;;;;;;;7.55;2.50;;;18.00;96.70;;;;;;5068370;28;20047;-87
2022/09/28 10:02:48;;;;;;;8.23;2.55;;;18.10;96.70;;;;;;5087200;28;20048;-87
2022/09/28 10:05:42;;;;;;;8.45;2.85;;;18.00;96.70;;;;;;5090208;28;20058;-86
2022/09/28 10:08:15;;;;;;;8.02;2.22;;;18.00;96.70;;;;;;5084221;28;20072;-86
2022/09/28 10:10:50;;;;;;;8.90;2.30;;;18.00;96.70;;;;;;5090376;28;20119;-86
2022/09/28 10:13:22;;;;;;;12.18;2.95;;;18.00;96.70;;;;;;5085330;28;20054;-85
2022/09/28 10:15:54;;;;;;;13.45;3.47;;;17.90;96.70;;;;;;5090480;28;20062;-85
2022/09/28 10:18:27;;;;;;;9.65;2.75;;;17.90;96.70;;;;;;5073988;28;20105;-83
2022/09/28 10:21:30;;;;;;;11.43;2.80;;;17.80;96.70;;;;;;5056363;28;20138;-85
2022/09/28 10:24:02;;;;;;;12.45;3.10;;;17.80;96.70;;;;;;5081085;28;20040;-86
2022/09/28 10:26:34;;;;;;;8.80;2.75;;;17.80;96.70;;;;;;5069851;28;20064;-85
2022/09/28 10:29:19;;;;;;;7.55;2.58;;;17.90;96.70;;;;;;5093646;28;20083;-87
2022/09/28 10:31:49;;;;;;;8.20;2.80;;;17.80;96.70;;;;;;5083236;28;20044;-87
2022/09/28 10:34:43;;;;;;;7.78;2.60;;;17.80;96.70;;;;;;5089383;28;20192;-87
2022/09/28 10:37:19;;;;;;;12.43;2.93;;;17.80;96.70;;;;;;5082089;28;20062;-85
2022/09/28 10:40:04;;;;;;;6.50;2.35;;;17.90;96.70;;;;;;5090216;28;20190;-86
2022/09/28 10:42:35;;;;;;;11.20;2.70;;;17.90;96.70;;;;;;5089114;28;20052;-88
2022/09/28 10:45:19;;;;;;;9.02;2.92;;;18.10;96.70;;;;;;5065062;28;20068;-87
2022/09/28 10:47:47;;;;;;;10.73;3.30;;;18.10;96.70;;;;;;5083980;28;20044;-85
2022/09/28 10:50:21;;;;;;;11.57;3.10;;;18.00;96.70;;;;;;5076124;28;20044;-82
2022/09/28 10:53:11;;;;;;;13.60;4.18;;;18.10;96.70;;;;;;5083190;28;20067;-85
2022/09/28 10:56:00;;;;;;;10.40;3.58;;;18.10;96.70;;;;;;5086301;28;20055;-87
2022/09/28 10:58:35;;;;;;;11.73;2.92;;;18.20;96.70;;;;;;5089550;28;20055;-84
2022/09/28 11:01:09;;;;;;;10.85;2.70;;;18.10;96.70;;;;;;5106158;28;20489;-88
2022/09/28 11:03:49;;;;;;;9.32;2.50;;;18.10;96.70;;;;;;5086256;28;20482;-88
2022/09/28 11:06:24;;;;;;;10.68;3.33;;;18.20;96.70;;;;;;5087608;28;20076;-84
2022/09/28 11:08:55;;;;;;;8.93;2.72;;;18.20;96.70;;;;;;5088471;28;20080;-83
2022/09/28 11:11:23;;;;;;;7.57;2.65;;;18.30;96.70;;;;;;5087640;28;20050;-83
2022/09/28 11:14:00;;;;;;;8.32;2.97;;;18.60;96.70;;;;;;5084191;28;20056;-82
2022/09/28 11:16:35;;;;;;;10.07;2.85;;;18.80;96.70;;;;;;5082712;28;20159;-83
2022/09/28 11:19:25;;;;;;;12.07;3.00;;;19.00;96.70;;;;;;5082119;28;20078;-83
2022/09/28 11:21:53;;;;;;;9.55;2.80;;;19.00;96.70;;;;;;5084402;28;20051;-83
2022/09/28 11:24:29;;;;;;;9.33;3.50;;;19.20;96.70;;;;;;5088959;28;20078;-83
2022/09/28 11:27:01;;;;;;;11.35;2.85;;;19.60;96.70;;;;;;5073849;28;20055;-81
2022/09/28 11:29:36;;;;;;;10.93;3.70;;;19.90;96.70;;;;;;5069809;28;20052;-81
2022/09/28 11:32:38;;;;;;;9.18;2.88;;;20.20;96.70;;;;;;5076373;28;20460;-84
2022/09/28 11:35:36;;;;;;;7.38;3.28;;;20.60;96.70;;;;;;5072127;28;20055;-82
2022/09/28 11:38:20;;;;;;;11.13;3.47;;;20.60;96.70;;;;;;5080047;28;20049;-81
2022/09/28 11:41:42;;;;;;;11.13;3.03;;;20.20;96.70;;;;;;5082354;28;20040;-83
2022/09/28 11:44:23;;;;;;;11.07;3.25;;;20.20;96.70;;;;;;5066905;28;20050;-83
2022/09/28 11:47:30;;;;;;;11.70;4.03;;;20.10;96.70;;;;;;5081967;28;20052;-83
2022/09/28 11:50:05;;;;;;;11.20;3.33;;;20.00;96.70;;;;;;5081384;28;20051;-83
2022/09/28 11:52:43;;;;;;;9.80;3.17;;;19.90;96.70;;;;;;5087298;28;20051;-86
2022/09/28 11:55:18;;;;;;;9.30;2.90;;;19.70;96.70;;;;;;5086661;28;20052;-86
2022/09/28 11:57:49;;;;;;;7.10;2.50;;;19.60;96.70;;;;;;5087555;28;20048;-84
2022/09/28 12:00:20;;;;;;;7.60;2.67;;;19.50;96.70;;;;;;5088353;28;20044;-86
2022/09/28 12:02:59;;;;;;;7.82;2.65;;;19.80;96.70;;;;;;5067758;28;20044;-88
2022/09/28 12:05:33;;;;;;;8.50;3.40;;;20.00;96.70;;;;;;5063886;28;20057;-80
2022/09/28 12:08:07;;;;;;;7.32;2.58;;;20.00;96.70;;;;;;5081060;28;20044;-85
2022/09/28 12:11:09;;;;;;;10.50;2.72;;;20.10;96.70;;;;;;5076512;28;20052;-78
2022/09/28 12:13:59;;;;;;;9.48;3.13;;;20.10;96.70;;;;;;5084361;28;20520;-77
2022/09/28 12:16:31;;;;;;;10.48;2.60;;;20.20;96.70;;;;;;5082166;28;20470;-76
2022/09/28 12:19:26;;;;;;;9.48;3.10;;;20.40;96.70;;;;;;5081437;28;20048;-75
2022/09/28 12:22:02;;;;;;;14.43;3.00;;;20.40;96.70;;;;;;5096375;28;20052;-76
2022/09/28 12:24:35;;;;;;;12.07;2.83;;;20.60;96.70;;;;;;5081512;28;20051;-75
2022/09/28 12:27:10;;;;;;;10.88;3.08;;;20.70;96.70;;;;;;5083941;28;20396;-76
2022/09/28 12:29:43;;;;;;;12.02;3.28;;;20.90;96.70;;;;;;5083257;28;20044;-75
2022/09/28 12:32:21;;;;;;;10.23;2.42;;;20.80;96.70;;;;;;5082954;28;20093;-76
2022/09/28 12:34:49;;;;;;;14.23;2.75;;;20.80;96.70;;;;;;5079704;28;20528;-76
2022/09/28 12:37:43;;;;;;;13.07;2.80;;;20.80;96.70;;;;;;5083073;28;20564;-77
2022/09/28 12:40:30;;;;;;;16.02;2.83;;;20.80;96.70;;;;;;5083498;28;20478;-75
2022/09/28 12:43:12;;;;;;;13.70;2.20;;;20.60;96.70;;;;;;5082209;28;20044;-76
2022/09/28 12:45:57;;;;;;;10.70;2.55;;;20.50;96.70;;;;;;5081674;28;20486;-76
2022/09/28 12:49:08;;;;;;;13.38;2.85;;;20.50;96.70;;;;;;5083193;28;20051;-78
2022/09/28 12:51:59;;;;;;;11.98;2.28;;;20.60;96.70;;;;;;5081812;28;20050;-78
2022/09/28 12:54:57;;;;;;;11.25;2.08;;;21.10;96.70;;;;;;5080679;28;20141;-74
2022/09/28 12:57:38;;;;;;;9.55;2.35;;;21.30;96.70;;;;;;5080753;28;20105;-75
2022/09/28 13:00:10;;;;;;;12.85;2.70;;;21.50;96.70;;;;;;5075847;28;20123;-77
2022/09/28 13:03:17;;;;;;;11.20;2.40;;;21.50;96.70;;;;;;5080078;28;20064;-76
2022/09/28 13:06:18;;;;;;;10.75;2.25;;;21.50;96.70;;;;;;5074942;28;20060;-76
2022/09/28 13:09:06;;;;;;;12.98;2.72;;;21.50;96.70;;;;;;5085676;28;20454;-77
2022/09/28 13:11:42;;;;;;;14.98;2.67;;;21.40;96.70;;;;;;5071465;28;20056;-79
2022/09/28 13:14:43;;;;;;;12.85;2.33;;;21.20;96.70;;;;;;5084599;28;20055;-79
2022/09/28 13:17:22;;;;;;;9.68;2.10;;;21.10;96.70;;;;;;5077880;28;20196;-79
2022/09/28 13:19:56;;;;;;;11.13;2.03;;;21.10;96.70;;;;;;5066148;28;20143;-79
2022/09/28 13:22:34;;;;;;;9.77;2.33;;;21.10;96.70;;;;;;5065041;28;20074;-79
2022/09/28 13:25:10;;;;;;;9.00;1.80;;;21.20;96.70;;;;;;5081376;28;20090;-79
2022/09/28 13:27:45;;;;;;;10.15;1.83;;;21.60;96.70;;;;;;5082097;28;20569;-79
2022/09/28 13:30:14;;;;;;;8.93;2.05;;;21.70;96.70;;;;;;5083444;28;20502;-79
2022/09/28 13:32:43;;;;;;;8.02;1.50;;;21.70;96.70;;;;;;5081719;28;20040;-79
2022/09/28 13:35:14;;;;;;;6.40;2.10;;;21.60;96.70;;;;;;5082093;28;20397;-81
2022/09/28 13:38:25;;;;;;;9.13;1.73;;;21.60;96.70;;;;;;5081909;28;20109;-81
2022/09/28 13:41:12;;;;;;;6.30;1.67;;;21.50;96.70;;;;;;4997577;28;20098;-78
2022/09/28 13:44:15;;;;;;;10.13;1.90;;;21.40;96.70;;;;;;5082920;28;20051;-78
2022/09/28 13:46:57;;;;;;;9.23;1.67;;;21.20;96.70;;;;;;5077953;28;20143;-78
2022/09/28 13:49:38;;;;;;;7.65;1.58;;;21.50;96.70;;;;;;5080593;28;20139;-77